sensor_id;sensor_type;location;lat;lon;timestamp;P1;durP1;ratioP1;P2;durP2;ratioP2
69714;SDS011;56981;53.532;49.398;2023-12-29T00:02:02;1.30;;;0.68;;
69714;SDS011;56981;53.532;49.398;2023-12-29T00:04:31;2.05;;;1.67;;
69714;SDS011;56981;53.532;49.398;2023-12-29T00:06:57;3.28;;;1.73;;
69714;SDS011;56981;53.532;49.398;2023-12-29T00:09:24;2.70;;;1.52;;
69714;SDS011;56981;53.532;49.398;2023-12-29T00:11:53;3.25;;;2.10;;
69714;SDS011;56981;53.532;49.398;2023-12-29T00:14:20;2.22;;;1.58;;
69714;SDS011;56981;53.532;49.398;2023-12-29T00:16:46;3.92;;;2.00;;
69714;SDS011;56981;53.532;49.398;2023-12-29T00:19:12;1.55;;;1.45;;
69714;SDS011;56981;53.532;49.398;2023-12-29T00:21:39;2.58;;;1.67;;
69714;SDS011;56981;53.532;49.398;2023-12-29T00:24:05;3.55;;;1.42;;
69714;SDS011;56981;53.532;49.398;2023-12-29T00:26:31;2.67;;;1.45;;
69714;SDS011;56981;53.532;49.398;2023-12-29T00:28:58;1.83;;;1.50;;
69714;SDS011;56981;53.532;49.398;2023-12-29T00:31:24;1.52;;;1.27;;
69714;SDS011;56981;53.532;49.398;2023-12-29T00:33:51;2.90;;;1.30;;
69714;SDS011;56981;53.532;49.398;2023-12-29T00:36:19;2.75;;;1.45;;
69714;SDS011;56981;53.532;49.398;2023-12-29T00:38:45;1.55;;;1.13;;
69714;SDS011;56981;53.532;49.398;2023-12-29T00:41:12;1.38;;;0.80;;
69714;SDS011;56981;53.532;49.398;2023-12-29T00:43:38;2.58;;;1.52;;
69714;SDS011;56981;53.532;49.398;2023-12-29T00:46:04;1.90;;;1.70;;
69714;SDS011;56981;53.532;49.398;2023-12-29T00:48:31;2.08;;;0.77;;
69714;SDS011;56981;53.532;49.398;2023-12-29T00:51:00;2.30;;;1.67;;
69714;SDS011;56981;53.532;49.398;2023-12-29T00:53:27;3.55;;;1.75;;
69714;SDS011;56981;53.532;49.398;2023-12-29T00:55:55;2.72;;;1.80;;
69714;SDS011;56981;53.532;49.398;2023-12-29T00:58:21;3.10;;;0.98;;
69714;SDS011;56981;53.532;49.398;2023-12-29T01:00:48;2.85;;;1.63;;
69714;SDS011;56981;53.532;49.398;2023-12-29T01:03:14;1.90;;;1.42;;
69714;SDS011;56981;53.532;49.398;2023-12-29T01:05:40;2.92;;;0.90;;
69714;SDS011;56981;53.532;49.398;2023-12-29T01:08:06;5.22;;;1.80;;
69714;SDS011;56981;53.532;49.398;2023-12-29T01:10:32;5.00;;;2.30;;
69714;SDS011;56981;53.532;49.398;2023-12-29T01:12:59;2.05;;;1.38;;
69714;SDS011;56981;53.532;49.398;2023-12-29T01:15:25;1.80;;;1.60;;
69714;SDS011;56981;53.532;49.398;2023-12-29T01:17:51;4.38;;;1.90;;
69714;SDS011;56981;53.532;49.398;2023-12-29T01:20:17;4.40;;;1.80;;
69714;SDS011;56981;53.532;49.398;2023-12-29T01:22:44;2.42;;;1.58;;
69714;SDS011;56981;53.532;49.398;2023-12-29T01:25:10;3.00;;;1.67;;
69714;SDS011;56981;53.532;49.398;2023-12-29T01:27:36;2.03;;;1.50;;
69714;SDS011;56981;53.532;49.398;2023-12-29T01:30:02;4.15;;;1.80;;
69714;SDS011;56981;53.532;49.398;2023-12-29T01:32:28;2.65;;;0.98;;
69714;SDS011;56981;53.532;49.398;2023-12-29T01:34:54;1.75;;;1.30;;
69714;SDS011;56981;53.532;49.398;2023-12-29T01:37:20;2.35;;;1.30;;
69714;SDS011;56981;53.532;49.398;2023-12-29T01:39:46;4.35;;;1.17;;
69714;SDS011;56981;53.532;49.398;2023-12-29T01:42:13;8.32;;;1.90;;
69714;SDS011;56981;53.532;49.398;2023-12-29T01:44:39;2.28;;;1.52;;
69714;SDS011;56981;53.532;49.398;2023-12-29T01:47:10;2.40;;;1.67;;
69714;SDS011;56981;53.532;49.398;2023-12-29T01:49:40;3.15;;;1.52;;
69714;SDS011;56981;53.532;49.398;2023-12-29T01:52:06;2.67;;;1.77;;
69714;SDS011;56981;53.532;49.398;2023-12-29T01:54:34;3.25;;;1.77;;
69714;SDS011;56981;53.532;49.398;2023-12-29T01:57:03;2.80;;;1.55;;
69714;SDS011;56981;53.532;49.398;2023-12-29T01:59:30;1.67;;;1.30;;
69714;SDS011;56981;53.532;49.398;2023-12-29T02:01:57;1.45;;;1.13;;
69714;SDS011;56981;53.532;49.398;2023-12-29T02:04:23;2.78;;;1.85;;
69714;SDS011;56981;53.532;49.398;2023-12-29T02:06:51;1.75;;;0.85;;
69714;SDS011;56981;53.532;49.398;2023-12-29T02:09:17;2.30;;;1.60;;
69714;SDS011;56981;53.532;49.398;2023-12-29T02:11:44;2.50;;;1.30;;
69714;SDS011;56981;53.532;49.398;2023-12-29T02:14:11;1.25;;;0.85;;
69714;SDS011;56981;53.532;49.398;2023-12-29T02:19:25;3.03;;;1.38;;
69714;SDS011;56981;53.532;49.398;2023-12-29T02:22:03;4.88;;;1.88;;
69714;SDS011;56981;53.532;49.398;2023-12-29T02:24:29;5.95;;;2.80;;
69714;SDS011;56981;53.532;49.398;2023-12-29T02:27:43;4.10;;;1.67;;
69714;SDS011;56981;53.532;49.398;2023-12-29T02:32:39;3.53;;;1.83;;
69714;SDS011;56981;53.532;49.398;2023-12-29T02:35:16;3.05;;;1.60;;
69714;SDS011;56981;53.532;49.398;2023-12-29T02:37:44;2.47;;;1.33;;
69714;SDS011;56981;53.532;49.398;2023-12-29T02:40:12;4.32;;;2.08;;
69714;SDS011;56981;53.532;49.398;2023-12-29T02:42:44;4.05;;;1.60;;
69714;SDS011;56981;53.532;49.398;2023-12-29T02:45:12;1.95;;;1.55;;
69714;SDS011;56981;53.532;49.398;2023-12-29T02:47:38;2.30;;;2.05;;
69714;SDS011;56981;53.532;49.398;2023-12-29T02:50:05;5.68;;;2.13;;
69714;SDS011;56981;53.532;49.398;2023-12-29T02:52:31;2.10;;;1.15;;
69714;SDS011;56981;53.532;49.398;2023-12-29T02:54:58;4.55;;;2.10;;
69714;SDS011;56981;53.532;49.398;2023-12-29T02:57:24;3.63;;;2.30;;
69714;SDS011;56981;53.532;49.398;2023-12-29T02:59:51;4.50;;;2.00;;
69714;SDS011;56981;53.532;49.398;2023-12-29T03:02:17;4.70;;;2.00;;
69714;SDS011;56981;53.532;49.398;2023-12-29T03:04:45;2.28;;;1.35;;
69714;SDS011;56981;53.532;49.398;2023-12-29T03:07:11;2.60;;;1.42;;
69714;SDS011;56981;53.532;49.398;2023-12-29T03:09:37;2.78;;;1.10;;
69714;SDS011;56981;53.532;49.398;2023-12-29T03:12:03;1.25;;;1.15;;
69714;SDS011;56981;53.532;49.398;2023-12-29T03:14:30;3.25;;;1.67;;
69714;SDS011;56981;53.532;49.398;2023-12-29T03:16:57;2.33;;;0.75;;
69714;SDS011;56981;53.532;49.398;2023-12-29T03:19:24;2.58;;;1.17;;
69714;SDS011;56981;53.532;49.398;2023-12-29T03:21:50;2.33;;;1.13;;
69714;SDS011;56981;53.532;49.398;2023-12-29T03:24:18;2.90;;;1.50;;
69714;SDS011;56981;53.532;49.398;2023-12-29T03:26:44;2.47;;;1.52;;
69714;SDS011;56981;53.532;49.398;2023-12-29T03:29:11;3.10;;;1.30;;
69714;SDS011;56981;53.532;49.398;2023-12-29T03:31:38;0.70;;;0.63;;
69714;SDS011;56981;53.532;49.398;2023-12-29T03:34:05;0.63;;;0.63;;
69714;SDS011;56981;53.532;49.398;2023-12-29T03:36:34;4.90;;;1.92;;
69714;SDS011;56981;53.532;49.398;2023-12-29T03:39:00;2.42;;;1.52;;
69714;SDS011;56981;53.532;49.398;2023-12-29T03:41:26;1.50;;;0.98;;
69714;SDS011;56981;53.532;49.398;2023-12-29T03:43:52;3.22;;;1.70;;
69714;SDS011;56981;53.532;49.398;2023-12-29T03:46:19;1.35;;;1.10;;
69714;SDS011;56981;53.532;49.398;2023-12-29T03:48:46;4.03;;;1.75;;
69714;SDS011;56981;53.532;49.398;2023-12-29T03:51:13;1.63;;;0.90;;
69714;SDS011;56981;53.532;49.398;2023-12-29T03:53:40;3.33;;;1.90;;
69714;SDS011;56981;53.532;49.398;2023-12-29T03:56:07;0.77;;;0.57;;
69714;SDS011;56981;53.532;49.398;2023-12-29T03:58:34;1.13;;;1.02;;
69714;SDS011;56981;53.532;49.398;2023-12-29T04:01:01;2.10;;;1.23;;
69714;SDS011;56981;53.532;49.398;2023-12-29T04:03:27;2.45;;;1.10;;
69714;SDS011;56981;53.532;49.398;2023-12-29T04:05:53;2.83;;;1.25;;
69714;SDS011;56981;53.532;49.398;2023-12-29T04:08:20;2.83;;;1.73;;
69714;SDS011;56981;53.532;49.398;2023-12-29T04:10:46;3.58;;;1.83;;
69714;SDS011;56981;53.532;49.398;2023-12-29T04:13:12;2.40;;;1.92;;
69714;SDS011;56981;53.532;49.398;2023-12-29T04:15:38;3.05;;;1.35;;
69714;SDS011;56981;53.532;49.398;2023-12-29T04:18:04;9.60;;;2.70;;
69714;SDS011;56981;53.532;49.398;2023-12-29T04:20:31;1.85;;;1.52;;
69714;SDS011;56981;53.532;49.398;2023-12-29T04:22:57;5.13;;;2.53;;
69714;SDS011;56981;53.532;49.398;2023-12-29T04:25:23;4.03;;;2.03;;
69714;SDS011;56981;53.532;49.398;2023-12-29T04:27:49;2.75;;;1.83;;
69714;SDS011;56981;53.532;49.398;2023-12-29T04:30:15;3.72;;;2.10;;
69714;SDS011;56981;53.532;49.398;2023-12-29T04:32:42;0.85;;;0.80;;
69714;SDS011;56981;53.532;49.398;2023-12-29T04:35:08;3.97;;;1.55;;
69714;SDS011;56981;53.532;49.398;2023-12-29T04:37:38;2.58;;;2.25;;
69714;SDS011;56981;53.532;49.398;2023-12-29T04:40:04;5.20;;;1.90;;
69714;SDS011;56981;53.532;49.398;2023-12-29T04:42:31;4.75;;;2.70;;
69714;SDS011;56981;53.532;49.398;2023-12-29T04:44:59;3.22;;;1.80;;
69714;SDS011;56981;53.532;49.398;2023-12-29T04:47:48;4.15;;;1.92;;
69714;SDS011;56981;53.532;49.398;2023-12-29T04:50:14;3.03;;;1.48;;
69714;SDS011;56981;53.532;49.398;2023-12-29T04:52:40;3.10;;;0.98;;
69714;SDS011;56981;53.532;49.398;2023-12-29T04:55:06;3.80;;;1.52;;
69714;SDS011;56981;53.532;49.398;2023-12-29T04:57:33;3.25;;;1.73;;
69714;SDS011;56981;53.532;49.398;2023-12-29T04:59:59;5.53;;;1.60;;
69714;SDS011;56981;53.532;49.398;2023-12-29T05:02:25;4.78;;;1.80;;
69714;SDS011;56981;53.532;49.398;2023-12-29T05:04:51;3.70;;;2.05;;
69714;SDS011;56981;53.532;49.398;2023-12-29T05:07:17;4.57;;;2.05;;
69714;SDS011;56981;53.532;49.398;2023-12-29T05:09:43;3.13;;;1.60;;
69714;SDS011;56981;53.532;49.398;2023-12-29T05:12:09;5.32;;;2.10;;
69714;SDS011;56981;53.532;49.398;2023-12-29T05:14:35;2.80;;;1.65;;
69714;SDS011;56981;53.532;49.398;2023-12-29T05:17:02;3.92;;;2.10;;
69714;SDS011;56981;53.532;49.398;2023-12-29T05:19:28;2.20;;;1.23;;
69714;SDS011;56981;53.532;49.398;2023-12-29T05:21:54;3.58;;;1.60;;
69714;SDS011;56981;53.532;49.398;2023-12-29T05:24:21;5.45;;;1.67;;
69714;SDS011;56981;53.532;49.398;2023-12-29T05:26:47;3.80;;;2.05;;
69714;SDS011;56981;53.532;49.398;2023-12-29T05:29:13;2.92;;;1.33;;
69714;SDS011;56981;53.532;49.398;2023-12-29T05:31:40;2.00;;;1.25;;
69714;SDS011;56981;53.532;49.398;2023-12-29T05:34:06;1.60;;;1.23;;
69714;SDS011;56981;53.532;49.398;2023-12-29T05:36:36;3.55;;;1.90;;
69714;SDS011;56981;53.532;49.398;2023-12-29T05:39:03;4.20;;;2.08;;
69714;SDS011;56981;53.532;49.398;2023-12-29T05:41:29;5.30;;;2.38;;
69714;SDS011;56981;53.532;49.398;2023-12-29T05:43:56;3.70;;;2.05;;
69714;SDS011;56981;53.532;49.398;2023-12-29T05:46:23;3.80;;;2.50;;
69714;SDS011;56981;53.532;49.398;2023-12-29T05:48:50;2.22;;;1.30;;
69714;SDS011;56981;53.532;49.398;2023-12-29T05:51:18;2.85;;;1.95;;
69714;SDS011;56981;53.532;49.398;2023-12-29T05:53:44;2.42;;;1.30;;
69714;SDS011;56981;53.532;49.398;2023-12-29T05:56:11;3.38;;;1.58;;
69714;SDS011;56981;53.532;49.398;2023-12-29T05:58:40;3.30;;;1.67;;
69714;SDS011;56981;53.532;49.398;2023-12-29T06:01:07;1.27;;;0.90;;
69714;SDS011;56981;53.532;49.398;2023-12-29T06:03:35;3.10;;;1.67;;
69714;SDS011;56981;53.532;49.398;2023-12-29T06:06:02;1.73;;;1.50;;
69714;SDS011;56981;53.532;49.398;2023-12-29T06:08:28;2.88;;;1.65;;
69714;SDS011;56981;53.532;49.398;2023-12-29T06:10:54;1.05;;;0.98;;
69714;SDS011;56981;53.532;49.398;2023-12-29T06:13:21;3.00;;;1.67;;
69714;SDS011;56981;53.532;49.398;2023-12-29T06:15:47;2.30;;;1.45;;
69714;SDS011;56981;53.532;49.398;2023-12-29T06:18:14;2.30;;;1.40;;
69714;SDS011;56981;53.532;49.398;2023-12-29T06:20:40;0.60;;;0.45;;
69714;SDS011;56981;53.532;49.398;2023-12-29T06:23:06;1.58;;;1.30;;
69714;SDS011;56981;53.532;49.398;2023-12-29T06:25:34;1.50;;;1.33;;
69714;SDS011;56981;53.532;49.398;2023-12-29T06:28:00;3.17;;;1.40;;
69714;SDS011;56981;53.532;49.398;2023-12-29T06:30:26;3.08;;;1.65;;
69714;SDS011;56981;53.532;49.398;2023-12-29T06:32:52;3.15;;;1.40;;
69714;SDS011;56981;53.532;49.398;2023-12-29T06:35:18;1.75;;;1.20;;
69714;SDS011;56981;53.532;49.398;2023-12-29T06:37:44;1.88;;;1.13;;
69714;SDS011;56981;53.532;49.398;2023-12-29T06:40:10;2.15;;;1.33;;
69714;SDS011;56981;53.532;49.398;2023-12-29T06:42:37;1.02;;;0.90;;
69714;SDS011;56981;53.532;49.398;2023-12-29T06:45:04;2.50;;;1.10;;
69714;SDS011;56981;53.532;49.398;2023-12-29T06:47:33;0.90;;;0.80;;
69714;SDS011;56981;53.532;49.398;2023-12-29T06:49:59;1.15;;;0.60;;
69714;SDS011;56981;53.532;49.398;2023-12-29T06:52:27;1.00;;;1.00;;
69714;SDS011;56981;53.532;49.398;2023-12-29T06:55:02;1.83;;;0.93;;
69714;SDS011;56981;53.532;49.398;2023-12-29T06:57:28;1.58;;;1.48;;
69714;SDS011;56981;53.532;49.398;2023-12-29T06:59:55;2.22;;;1.50;;
69714;SDS011;56981;53.532;49.398;2023-12-29T07:02:21;1.55;;;1.40;;
69714;SDS011;56981;53.532;49.398;2023-12-29T07:04:47;2.20;;;1.30;;
69714;SDS011;56981;53.532;49.398;2023-12-29T07:07:13;4.45;;;2.70;;
69714;SDS011;56981;53.532;49.398;2023-12-29T07:09:41;3.92;;;1.27;;
69714;SDS011;56981;53.532;49.398;2023-12-29T07:12:07;1.45;;;0.98;;
69714;SDS011;56981;53.532;49.398;2023-12-29T07:14:33;2.85;;;1.30;;
69714;SDS011;56981;53.532;49.398;2023-12-29T07:17:05;3.10;;;1.33;;
69714;SDS011;56981;53.532;49.398;2023-12-29T07:19:31;1.45;;;1.15;;
69714;SDS011;56981;53.532;49.398;2023-12-29T07:22:05;2.00;;;1.10;;
69714;SDS011;56981;53.532;49.398;2023-12-29T07:24:32;2.28;;;1.20;;
69714;SDS011;56981;53.532;49.398;2023-12-29T07:26:58;1.90;;;1.10;;
69714;SDS011;56981;53.532;49.398;2023-12-29T07:29:24;0.90;;;0.90;;
69714;SDS011;56981;53.532;49.398;2023-12-29T07:31:50;4.00;;;1.60;;
69714;SDS011;56981;53.532;49.398;2023-12-29T07:34:16;2.25;;;1.45;;
69714;SDS011;56981;53.532;49.398;2023-12-29T07:36:42;2.72;;;1.75;;
69714;SDS011;56981;53.532;49.398;2023-12-29T07:39:09;3.15;;;1.45;;
69714;SDS011;56981;53.532;49.398;2023-12-29T07:41:41;2.25;;;1.75;;
69714;SDS011;56981;53.532;49.398;2023-12-29T07:44:09;2.53;;;1.58;;
69714;SDS011;56981;53.532;49.398;2023-12-29T07:46:37;2.58;;;1.00;;
69714;SDS011;56981;53.532;49.398;2023-12-29T07:49:04;1.73;;;1.05;;
69714;SDS011;56981;53.532;49.398;2023-12-29T07:51:30;3.72;;;1.98;;
69714;SDS011;56981;53.532;49.398;2023-12-29T07:53:57;1.15;;;1.02;;
69714;SDS011;56981;53.532;49.398;2023-12-29T07:56:23;1.92;;;1.23;;
69714;SDS011;56981;53.532;49.398;2023-12-29T07:58:49;3.63;;;1.90;;
69714;SDS011;56981;53.532;49.398;2023-12-29T08:01:15;2.72;;;1.73;;
69714;SDS011;56981;53.532;49.398;2023-12-29T08:03:41;2.38;;;1.58;;
69714;SDS011;56981;53.532;49.398;2023-12-29T08:06:07;1.95;;;1.10;;
69714;SDS011;56981;53.532;49.398;2023-12-29T08:08:33;2.20;;;1.75;;
69714;SDS011;56981;53.532;49.398;2023-12-29T08:10:59;2.13;;;1.55;;
69714;SDS011;56981;53.532;49.398;2023-12-29T08:13:25;4.70;;;2.30;;
69714;SDS011;56981;53.532;49.398;2023-12-29T08:15:54;2.55;;;1.48;;
69714;SDS011;56981;53.532;49.398;2023-12-29T08:18:20;3.10;;;1.38;;
69714;SDS011;56981;53.532;49.398;2023-12-29T08:20:46;3.35;;;1.77;;
69714;SDS011;56981;53.532;49.398;2023-12-29T08:23:13;2.13;;;1.50;;
69714;SDS011;56981;53.532;49.398;2023-12-29T08:25:39;4.70;;;2.05;;
69714;SDS011;56981;53.532;49.398;2023-12-29T08:28:05;1.75;;;0.85;;
69714;SDS011;56981;53.532;49.398;2023-12-29T08:30:34;1.60;;;0.93;;
69714;SDS011;56981;53.532;49.398;2023-12-29T08:33:03;2.22;;;1.27;;
69714;SDS011;56981;53.532;49.398;2023-12-29T08:35:29;0.63;;;0.63;;
69714;SDS011;56981;53.532;49.398;2023-12-29T08:37:55;1.25;;;1.08;;
69714;SDS011;56981;53.532;49.398;2023-12-29T08:40:24;4.15;;;2.00;;
69714;SDS011;56981;53.532;49.398;2023-12-29T08:42:50;5.57;;;2.42;;
69714;SDS011;56981;53.532;49.398;2023-12-29T08:45:16;4.70;;;2.45;;
69714;SDS011;56981;53.532;49.398;2023-12-29T08:47:42;4.65;;;1.98;;
69714;SDS011;56981;53.532;49.398;2023-12-29T08:50:08;4.80;;;2.55;;
69714;SDS011;56981;53.532;49.398;2023-12-29T08:52:35;8.00;;;3.65;;
69714;SDS011;56981;53.532;49.398;2023-12-29T08:55:01;2.92;;;1.40;;
69714;SDS011;56981;53.532;49.398;2023-12-29T08:57:28;4.32;;;2.15;;
69714;SDS011;56981;53.532;49.398;2023-12-29T08:59:54;3.90;;;1.98;;
69714;SDS011;56981;53.532;49.398;2023-12-29T09:02:22;3.38;;;1.90;;
69714;SDS011;56981;53.532;49.398;2023-12-29T09:04:51;4.47;;;2.40;;
69714;SDS011;56981;53.532;49.398;2023-12-29T09:07:17;3.92;;;2.65;;
69714;SDS011;56981;53.532;49.398;2023-12-29T09:09:43;5.50;;;2.78;;
69714;SDS011;56981;53.532;49.398;2023-12-29T09:12:09;4.32;;;1.90;;
69714;SDS011;56981;53.532;49.398;2023-12-29T09:14:35;3.92;;;2.28;;
69714;SDS011;56981;53.532;49.398;2023-12-29T09:17:01;4.75;;;2.47;;
69714;SDS011;56981;53.532;49.398;2023-12-29T09:19:28;4.53;;;2.38;;
69714;SDS011;56981;53.532;49.398;2023-12-29T09:21:54;2.95;;;1.80;;
69714;SDS011;56981;53.532;49.398;2023-12-29T09:24:20;2.80;;;1.63;;
69714;SDS011;56981;53.532;49.398;2023-12-29T09:26:47;2.00;;;1.52;;
69714;SDS011;56981;53.532;49.398;2023-12-29T09:29:13;2.88;;;1.50;;
69714;SDS011;56981;53.532;49.398;2023-12-29T09:31:39;2.30;;;1.38;;
69714;SDS011;56981;53.532;49.398;2023-12-29T09:34:06;2.55;;;1.52;;
69714;SDS011;56981;53.532;49.398;2023-12-29T09:36:32;4.07;;;2.10;;
69714;SDS011;56981;53.532;49.398;2023-12-29T09:38:59;4.55;;;2.00;;
69714;SDS011;56981;53.532;49.398;2023-12-29T09:41:25;3.65;;;2.10;;
69714;SDS011;56981;53.532;49.398;2023-12-29T09:43:59;3.15;;;1.63;;
69714;SDS011;56981;53.532;49.398;2023-12-29T09:46:31;2.00;;;1.67;;
69714;SDS011;56981;53.532;49.398;2023-12-29T09:48:59;3.22;;;1.60;;
69714;SDS011;56981;53.532;49.398;2023-12-29T09:51:30;3.55;;;1.90;;
69714;SDS011;56981;53.532;49.398;2023-12-29T09:53:57;6.07;;;1.85;;
69714;SDS011;56981;53.532;49.398;2023-12-29T09:56:24;1.92;;;1.17;;
69714;SDS011;56981;53.532;49.398;2023-12-29T09:58:51;2.90;;;1.58;;
69714;SDS011;56981;53.532;49.398;2023-12-29T10:01:20;3.00;;;1.65;;
69714;SDS011;56981;53.532;49.398;2023-12-29T10:03:50;3.47;;;2.05;;
69714;SDS011;56981;53.532;49.398;2023-12-29T10:06:19;3.97;;;1.75;;
69714;SDS011;56981;53.532;49.398;2023-12-29T10:08:49;1.98;;;1.60;;
69714;SDS011;56981;53.532;49.398;2023-12-29T10:11:18;2.55;;;1.42;;
69714;SDS011;56981;53.532;49.398;2023-12-29T10:13:46;2.20;;;1.70;;
69714;SDS011;56981;53.532;49.398;2023-12-29T10:17:00;3.35;;;1.77;;
69714;SDS011;56981;53.532;49.398;2023-12-29T10:22:15;2.00;;;1.70;;
69714;SDS011;56981;53.532;49.398;2023-12-29T10:24:47;2.85;;;1.70;;
69714;SDS011;56981;53.532;49.398;2023-12-29T10:27:16;1.88;;;1.67;;
69714;SDS011;56981;53.532;49.398;2023-12-29T10:29:42;2.70;;;2.00;;
69714;SDS011;56981;53.532;49.398;2023-12-29T10:32:09;3.00;;;1.80;;
69714;SDS011;56981;53.532;49.398;2023-12-29T10:34:35;3.15;;;1.67;;
69714;SDS011;56981;53.532;49.398;2023-12-29T10:37:02;1.92;;;1.52;;
69714;SDS011;56981;53.532;49.398;2023-12-29T10:39:32;2.05;;;1.35;;
69714;SDS011;56981;53.532;49.398;2023-12-29T10:42:02;2.55;;;1.58;;
69714;SDS011;56981;53.532;49.398;2023-12-29T10:44:34;2.83;;;1.70;;
69714;SDS011;56981;53.532;49.398;2023-12-29T10:47:09;4.10;;;2.03;;
69714;SDS011;56981;53.532;49.398;2023-12-29T10:49:36;3.22;;;2.05;;
69714;SDS011;56981;53.532;49.398;2023-12-29T10:52:13;2.42;;;1.85;;
69714;SDS011;56981;53.532;49.398;2023-12-29T10:54:40;2.30;;;1.10;;
69714;SDS011;56981;53.532;49.398;2023-12-29T10:57:10;3.85;;;1.80;;
69714;SDS011;56981;53.532;49.398;2023-12-29T10:59:38;3.55;;;1.60;;
69714;SDS011;56981;53.532;49.398;2023-12-29T11:02:05;3.60;;;2.22;;
69714;SDS011;56981;53.532;49.398;2023-12-29T11:04:34;4.38;;;2.75;;
69714;SDS011;56981;53.532;49.398;2023-12-29T11:07:00;2.75;;;1.70;;
69714;SDS011;56981;53.532;49.398;2023-12-29T11:09:30;3.15;;;2.00;;
69714;SDS011;56981;53.532;49.398;2023-12-29T11:12:03;4.65;;;2.20;;
69714;SDS011;56981;53.532;49.398;2023-12-29T11:14:30;3.20;;;2.30;;
69714;SDS011;56981;53.532;49.398;2023-12-29T11:16:58;2.65;;;1.98;;
69714;SDS011;56981;53.532;49.398;2023-12-29T11:19:26;3.50;;;1.83;;
69714;SDS011;56981;53.532;49.398;2023-12-29T11:21:56;4.15;;;2.83;;
69714;SDS011;56981;53.532;49.398;2023-12-29T11:24:24;3.85;;;2.35;;
69714;SDS011;56981;53.532;49.398;2023-12-29T11:26:50;5.45;;;3.03;;
69714;SDS011;56981;53.532;49.398;2023-12-29T11:29:16;4.13;;;2.13;;
69714;SDS011;56981;53.532;49.398;2023-12-29T11:31:46;3.08;;;1.85;;
69714;SDS011;56981;53.532;49.398;2023-12-29T11:34:29;2.95;;;1.98;;
69714;SDS011;56981;53.532;49.398;2023-12-29T11:37:20;5.50;;;3.10;;
69714;SDS011;56981;53.532;49.398;2023-12-29T11:40:26;1.65;;;1.20;;
69714;SDS011;56981;53.532;49.398;2023-12-29T11:43:03;6.72;;;2.67;;
69714;SDS011;56981;53.532;49.398;2023-12-29T11:45:33;6.40;;;2.80;;
69714;SDS011;56981;53.532;49.398;2023-12-29T11:48:03;3.60;;;2.33;;
69714;SDS011;56981;53.532;49.398;2023-12-29T11:50:30;5.90;;;3.47;;
69714;SDS011;56981;53.532;49.398;2023-12-29T11:52:58;5.03;;;3.05;;
69714;SDS011;56981;53.532;49.398;2023-12-29T11:55:29;5.57;;;2.63;;
69714;SDS011;56981;53.532;49.398;2023-12-29T11:57:57;3.33;;;2.10;;
69714;SDS011;56981;53.532;49.398;2023-12-29T12:03:25;3.65;;;2.30;;
69714;SDS011;56981;53.532;49.398;2023-12-29T12:05:53;6.90;;;2.78;;
69714;SDS011;56981;53.532;49.398;2023-12-29T12:13:55;5.75;;;3.15;;
69714;SDS011;56981;53.532;49.398;2023-12-29T12:16:55;6.28;;;3.53;;
69714;SDS011;56981;53.532;49.398;2023-12-29T12:19:15;5.03;;;2.80;;
69714;SDS011;56981;53.532;49.398;2023-12-29T12:21:45;2.10;;;1.80;;
69714;SDS011;56981;53.532;49.398;2023-12-29T12:24:14;4.80;;;2.92;;
69714;SDS011;56981;53.532;49.398;2023-12-29T12:26:46;6.55;;;2.70;;
69714;SDS011;56981;53.532;49.398;2023-12-29T12:29:16;7.22;;;3.53;;
69714;SDS011;56981;53.532;49.398;2023-12-29T12:31:52;7.25;;;3.83;;
69714;SDS011;56981;53.532;49.398;2023-12-29T12:34:22;4.63;;;1.92;;
69714;SDS011;56981;53.532;49.398;2023-12-29T12:36:53;5.32;;;2.67;;
69714;SDS011;56981;53.532;49.398;2023-12-29T12:39:28;4.47;;;2.22;;
69714;SDS011;56981;53.532;49.398;2023-12-29T12:42:04;6.90;;;3.47;;
69714;SDS011;56981;53.532;49.398;2023-12-29T12:44:31;6.63;;;3.60;;
69714;SDS011;56981;53.532;49.398;2023-12-29T12:46:59;5.53;;;3.22;;
69714;SDS011;56981;53.532;49.398;2023-12-29T12:49:31;6.07;;;3.40;;
69714;SDS011;56981;53.532;49.398;2023-12-29T12:51:58;8.18;;;3.72;;
69714;SDS011;56981;53.532;49.398;2023-12-29T12:54:25;6.60;;;3.53;;
69714;SDS011;56981;53.532;49.398;2023-12-29T12:56:51;9.52;;;3.78;;
69714;SDS011;56981;53.532;49.398;2023-12-29T12:59:17;9.68;;;4.00;;
69714;SDS011;56981;53.532;49.398;2023-12-29T13:01:44;3.35;;;2.13;;
69714;SDS011;56981;53.532;49.398;2023-12-29T13:04:10;5.50;;;2.70;;
69714;SDS011;56981;53.532;49.398;2023-12-29T13:06:41;8.13;;;4.00;;
69714;SDS011;56981;53.532;49.398;2023-12-29T13:09:12;7.15;;;3.38;;
69714;SDS011;56981;53.532;49.398;2023-12-29T13:11:39;7.95;;;3.58;;
69714;SDS011;56981;53.532;49.398;2023-12-29T13:14:08;6.50;;;3.55;;
69714;SDS011;56981;53.532;49.398;2023-12-29T13:16:35;8.40;;;3.72;;
69714;SDS011;56981;53.532;49.398;2023-12-29T13:19:21;8.02;;;3.22;;
69714;SDS011;56981;53.532;49.398;2023-12-29T13:21:50;4.18;;;2.33;;
69714;SDS011;56981;53.532;49.398;2023-12-29T13:24:20;6.53;;;3.80;;
69714;SDS011;56981;53.532;49.398;2023-12-29T13:26:47;7.55;;;3.55;;
69714;SDS011;56981;53.532;49.398;2023-12-29T13:29:19;4.75;;;2.25;;
69714;SDS011;56981;53.532;49.398;2023-12-29T13:31:52;8.45;;;3.85;;
69714;SDS011;56981;53.532;49.398;2023-12-29T13:34:21;6.20;;;3.10;;
69714;SDS011;56981;53.532;49.398;2023-12-29T13:36:54;8.82;;;3.72;;
69714;SDS011;56981;53.532;49.398;2023-12-29T13:42:05;4.50;;;2.90;;
69714;SDS011;56981;53.532;49.398;2023-12-29T13:44:34;2.88;;;1.73;;
69714;SDS011;56981;53.532;49.398;2023-12-29T13:47:03;7.43;;;3.40;;
69714;SDS011;56981;53.532;49.398;2023-12-29T13:49:33;4.10;;;1.80;;
69714;SDS011;56981;53.532;49.398;2023-12-29T13:52:02;8.05;;;3.80;;
69714;SDS011;56981;53.532;49.398;2023-12-29T13:54:29;8.20;;;3.67;;
69714;SDS011;56981;53.532;49.398;2023-12-29T13:56:55;6.07;;;2.97;;
69714;SDS011;56981;53.532;49.398;2023-12-29T13:59:31;6.40;;;3.58;;
69714;SDS011;56981;53.532;49.398;2023-12-29T14:02:15;9.98;;;3.83;;
69714;SDS011;56981;53.532;49.398;2023-12-29T14:07:47;8.32;;;3.75;;
69714;SDS011;56981;53.532;49.398;2023-12-29T14:10:18;4.25;;;2.70;;
69714;SDS011;56981;53.532;49.398;2023-12-29T14:12:44;6.10;;;3.33;;
69714;SDS011;56981;53.532;49.398;2023-12-29T14:15:11;8.43;;;3.92;;
69714;SDS011;56981;53.532;49.398;2023-12-29T14:17:38;7.57;;;2.90;;
69714;SDS011;56981;53.532;49.398;2023-12-29T14:20:06;8.02;;;3.78;;
69714;SDS011;56981;53.532;49.398;2023-12-29T14:22:33;6.95;;;3.67;;
69714;SDS011;56981;53.532;49.398;2023-12-29T14:25:03;8.90;;;3.65;;
69714;SDS011;56981;53.532;49.398;2023-12-29T14:27:31;7.22;;;3.55;;
69714;SDS011;56981;53.532;49.398;2023-12-29T14:29:57;4.18;;;2.40;;
69714;SDS011;56981;53.532;49.398;2023-12-29T14:32:24;9.98;;;4.75;;
69714;SDS011;56981;53.532;49.398;2023-12-29T14:34:50;10.05;;;4.32;;
69714;SDS011;56981;53.532;49.398;2023-12-29T14:37:19;9.90;;;4.53;;
69714;SDS011;56981;53.532;49.398;2023-12-29T14:39:49;10.77;;;4.85;;
69714;SDS011;56981;53.532;49.398;2023-12-29T14:42:16;9.23;;;3.63;;
69714;SDS011;56981;53.532;49.398;2023-12-29T14:44:45;10.85;;;5.22;;
69714;SDS011;56981;53.532;49.398;2023-12-29T14:47:13;6.55;;;3.80;;
69714;SDS011;56981;53.532;49.398;2023-12-29T14:49:40;9.82;;;5.05;;
69714;SDS011;56981;53.532;49.398;2023-12-29T14:52:06;11.10;;;5.22;;
69714;SDS011;56981;53.532;49.398;2023-12-29T14:54:37;7.57;;;3.85;;
69714;SDS011;56981;53.532;49.398;2023-12-29T14:57:06;5.82;;;2.70;;
69714;SDS011;56981;53.532;49.398;2023-12-29T14:59:33;2.88;;;1.80;;
69714;SDS011;56981;53.532;49.398;2023-12-29T15:02:02;6.15;;;3.35;;